Time;durP1;ratioP1;P1;durP2;ratioP2;P2;SDS_P1;SDS_P2;PMS_P1;PMS_P2;Temp;Humidity;BMP_temperature;BMP_pressure;BME280_temperature;BME280_humidity;BME280_pressure;Samples;Min_cycle;Max_cycle;Signal;HPM_P1;HPM_P2
2022/03/26 00:01:19;;;;;;;32.33;14.50;;;;;;;;;;5033921;28;20354;-44
2022/03/26 00:03:44;;;;;;;35.53;14.05;;;;;;;;;;5033933;28;20022;-45
2022/03/26 00:06:09;;;;;;;30.05;13.02;;;;;;;;;;5034198;28;20022;-46
2022/03/26 00:08:35;;;;;;;30.92;12.50;;;;;;;;;;5034027;28;20018;-44
2022/03/26 00:11:00;;;;;;;35.05;12.85;;;;;;;;;;5033968;28;20022;-45
2022/03/26 00:13:25;;;;;;;29.50;12.75;;;;;;;;;;5033779;28;20029;-43
2022/03/26 00:15:51;;;;;;;27.40;12.80;;;;;;;;;;5033668;28;20041;-45
2022/03/26 00:18:17;;;;;;;27.35;12.55;;;;;;;;;;5033506;28;20052;-44
2022/03/26 00:20:43;;;;;;;27.38;13.10;;;;;;;;;;5033760;28;20028;-44
2022/03/26 00:23:08;;;;;;;33.95;13.13;;;;;;;;;;5033864;28;20025;-42
2022/03/26 00:25:34;;;;;;;32.80;12.23;;;;;;;;;;5033658;28;20080;-42
2022/03/26 00:27:59;;;;;;;39.50;13.60;;;;;;;;;;5033410;28;20032;-45
2022/03/26 00:30:25;;;;;;;30.15;13.27;;;;;;;;;;5033421;28;20025;-44
2022/03/26 00:32:50;;;;;;;48.78;15.63;;;;;;;;;;5033245;28;20068;-43
2022/03/26 00:35:15;;;;;;;43.13;14.75;;;;;;;;;;5033578;28;20040;-42
2022/03/26 00:37:40;;;;;;;38.58;14.10;;;;;;;;;;5033550;28;20461;-42
2022/03/26 00:40:06;;;;;;;39.50;14.40;;;;;;;;;;5032180;28;20025;-43
2022/03/26 00:42:32;;;;;;;34.88;13.18;;;;;;;;;;5033288;28;20067;-42
2022/03/26 00:44:57;;;;;;;44.30;14.93;;;;;;;;;;5033641;28;20021;-42
2022/03/26 00:47:22;;;;;;;42.67;15.25;;;;;;;;;;5033030;28;20021;-43
2022/03/26 00:49:48;;;;;;;41.92;13.95;;;;;;;;;;5033374;28;20025;-42
2022/03/26 00:52:13;;;;;;;31.73;13.05;;;;;;;;;;5032314;28;20532;-44
2022/03/26 00:54:39;;;;;;;33.30;13.10;;;;;;;;;;5033091;28;20029;-43
2022/03/26 00:57:04;;;;;;;36.10;12.95;;;;;;;;;;5033210;28;20107;-44
2022/03/26 00:59:29;;;;;;;36.25;13.80;;;;;;;;;;5033067;28;20021;-45
2022/03/26 01:01:55;;;;;;;29.95;12.68;;;;;;;;;;5032865;28;20044;-45
2022/03/26 01:04:20;;;;;;;35.90;14.23;;;;;;;;;;5032815;28;20099;-46
2022/03/26 01:06:45;;;;;;;28.92;12.77;;;;;;;;;;5033073;28;20067;-47
2022/03/26 01:09:11;;;;;;;26.85;12.48;;;;;;;;;;5032816;28;20075;-48
2022/03/26 01:11:36;;;;;;;26.02;11.98;;;;;;;;;;5031688;28;20018;-45
2022/03/26 01:14:02;;;;;;;35.05;12.30;;;;;;;;;;5032799;28;20372;-45
2022/03/26 01:16:27;;;;;;;33.97;12.80;;;;;;;;;;5032551;28;20480;-42
2022/03/26 01:18:53;;;;;;;33.60;13.65;;;;;;;;;;5032554;28;20026;-44
2022/03/26 01:21:19;;;;;;;35.45;13.07;;;;;;;;;;5032886;28;20376;-43
2022/03/26 01:23:48;;;;;;;28.58;12.82;;;;;;;;;;5032957;28;20022;-43
2022/03/26 01:26:14;;;;;;;33.03;13.75;;;;;;;;;;5032780;28;20021;-43
2022/03/26 01:28:39;;;;;;;32.38;12.85;;;;;;;;;;5032453;28;20018;-45
2022/03/26 01:31:04;;;;;;;38.20;15.70;;;;;;;;;;5032670;28;20022;-48
2022/03/26 01:33:30;;;;;;;30.27;12.65;;;;;;;;;;5032437;28;20380;-45
2022/03/26 01:35:55;;;;;;;30.63;12.98;;;;;;;;;;5032744;28;20375;-43
2022/03/26 01:38:21;;;;;;;36.10;13.38;;;;;;;;;;5032800;28;20025;-43
2022/03/26 01:40:46;;;;;;;36.95;13.57;;;;;;;;;;5032827;28;20376;-43
2022/03/26 01:43:12;;;;;;;28.60;13.45;;;;;;;;;;5032677;28;20097;-45
2022/03/26 01:45:37;;;;;;;34.65;13.98;;;;;;;;;;5032580;28;20026;-43
2022/03/26 01:48:03;;;;;;;39.50;12.60;;;;;;;;;;5032446;28;20021;-43
2022/03/26 01:50:29;;;;;;;42.80;13.60;;;;;;;;;;5032752;28;20427;-43
2022/03/26 01:52:55;;;;;;;31.50;13.30;;;;;;;;;;5031375;28;20029;-43
2022/03/26 01:55:21;;;;;;;33.90;13.20;;;;;;;;;;5032490;28;20042;-48
2022/03/26 01:57:47;;;;;;;38.90;14.40;;;;;;;;;;5032522;28;20089;-45
2022/03/26 02:00:13;;;;;;;30.50;12.43;;;;;;;;;;5032543;28;20030;-45
2022/03/26 02:02:43;;;;;;;30.38;12.88;;;;;;;;;;5032351;28;20033;-43
2022/03/26 02:05:08;;;;;;;32.50;13.45;;;;;;;;;;5036210;28;20050;-43
2022/03/26 02:07:35;;;;;;;28.58;13.63;;;;;;;;;;5036486;28;20372;-44
2022/03/26 02:10:01;;;;;;;31.67;12.45;;;;;;;;;;5036158;28;20022;-45
2022/03/26 02:12:27;;;;;;;39.60;13.43;;;;;;;;;;5036186;28;20032;-43
2022/03/26 02:14:53;;;;;;;32.53;13.07;;;;;;;;;;5035996;28;20473;-43
2022/03/26 02:17:19;;;;;;;41.72;14.25;;;;;;;;;;5035837;28;20021;-43
2022/03/26 02:19:58;;;;;;;30.67;13.32;;;;;;;;;;5036020;28;20483;-44
2022/03/26 02:22:24;;;;;;;28.80;12.93;;;;;;;;;;5035780;28;20099;-43
2022/03/26 02:24:49;;;;;;;36.08;13.32;;;;;;;;;;5035879;28;20536;-44
2022/03/26 02:27:15;;;;;;;35.10;13.00;;;;;;;;;;5035974;28;20017;-43
2022/03/26 02:29:40;;;;;;;38.90;14.30;;;;;;;;;;5035664;28;20055;-43
2022/03/26 02:32:06;;;;;;;32.20;13.02;;;;;;;;;;5035558;28;20028;-44
2022/03/26 02:34:31;;;;;;;29.33;14.27;;;;;;;;;;5035680;28;20021;-44
2022/03/26 02:36:57;;;;;;;31.38;13.05;;;;;;;;;;5035806;28;20484;-45
2022/03/26 02:39:22;;;;;;;35.88;13.77;;;;;;;;;;5035702;28;20060;-44
2022/03/26 02:41:48;;;;;;;38.55;13.65;;;;;;;;;;5035571;28;20064;-43
2022/03/26 02:44:13;;;;;;;30.08;13.00;;;;;;;;;;5035504;28;20121;-45
2022/03/26 02:46:38;;;;;;;34.47;14.70;;;;;;;;;;5035579;28;20030;-44
2022/03/26 02:49:04;;;;;;;33.20;15.05;;;;;;;;;;5035387;28;20025;-45
2022/03/26 02:51:29;;;;;;;48.30;15.38;;;;;;;;;;5035189;28;20108;-48
2022/03/26 02:53:55;;;;;;;40.13;13.93;;;;;;;;;;5035120;28;20032;-44
2022/03/26 02:56:20;;;;;;;40.83;15.35;;;;;;;;;;5035121;28;20037;-44
2022/03/26 02:58:47;;;;;;;33.83;13.55;;;;;;;;;;5035285;28;20099;-44
2022/03/26 03:01:13;;;;;;;32.30;13.70;;;;;;;;;;5034920;28;20537;-45
2022/03/26 03:03:38;;;;;;;31.83;13.70;;;;;;;;;;5035390;28;20045;-43
2022/03/26 03:06:04;;;;;;;33.53;14.65;;;;;;;;;;5035269;28;20464;-43
2022/03/26 03:08:29;;;;;;;37.67;15.63;;;;;;;;;;5035102;28;20017;-45
2022/03/26 03:10:54;;;;;;;50.17;18.17;;;;;;;;;;5035081;28;20487;-44
2022/03/26 03:13:22;;;;;;;46.00;16.83;;;;;;;;;;5035039;28;20025;-44
2022/03/26 03:15:48;;;;;;;49.65;17.13;;;;;;;;;;5034220;28;20026;-43
2022/03/26 03:18:13;;;;;;;45.35;17.13;;;;;;;;;;5034891;28;20457;-44
2022/03/26 03:20:38;;;;;;;48.30;17.88;;;;;;;;;;5033592;28;20082;-45
2022/03/26 03:23:05;;;;;;;39.22;16.48;;;;;;;;;;5034838;28;20060;-43
2022/03/26 03:25:30;;;;;;;40.70;16.45;;;;;;;;;;5034706;28;20044;-43
2022/03/26 03:27:57;;;;;;;37.72;17.50;;;;;;;;;;5034652;28;20068;-43
2022/03/26 03:30:22;;;;;;;47.83;17.33;;;;;;;;;;5034508;28;20022;-46
2022/03/26 03:32:47;;;;;;;41.53;16.73;;;;;;;;;;5033323;28;20028;-44
2022/03/26 03:35:13;;;;;;;45.20;15.07;;;;;;;;;;5034540;28;20042;-44
2022/03/26 03:37:38;;;;;;;53.58;15.90;;;;;;;;;;5034818;28;20025;-44
2022/03/26 03:40:04;;;;;;;44.47;16.45;;;;;;;;;;5034352;28;20487;-43
2022/03/26 03:42:30;;;;;;;36.33;15.70;;;;;;;;;;5034434;28;20025;-43
2022/03/26 03:44:55;;;;;;;50.22;17.70;;;;;;;;;;5034173;28;20026;-43
2022/03/26 03:47:20;;;;;;;46.50;17.05;;;;;;;;;;5034426;28;20033;-45
2022/03/26 03:49:46;;;;;;;45.03;18.23;;;;;;;;;;5034545;28;20021;-43
2022/03/26 03:52:11;;;;;;;45.35;16.90;;;;;;;;;;5034387;28;20358;-45
2022/03/26 03:54:37;;;;;;;46.63;17.05;;;;;;;;;;5034595;28;20368;-44
2022/03/26 03:57:02;;;;;;;42.95;17.52;;;;;;;;;;5034367;28;20013;-44
2022/03/26 03:59:28;;;;;;;46.35;17.48;;;;;;;;;;5034178;28;20029;-44
2022/03/26 04:01:53;;;;;;;54.05;18.65;;;;;;;;;;5033887;28;20029;-45
2022/03/26 04:04:18;;;;;;;51.47;18.30;;;;;;;;;;5033939;28;20099;-46
2022/03/26 04:06:44;;;;;;;48.85;17.30;;;;;;;;;;5033942;28;20021;-49
2022/03/26 04:09:09;;;;;;;43.65;19.23;;;;;;;;;;5033648;28;20461;-44
2022/03/26 04:11:34;;;;;;;43.35;19.38;;;;;;;;;;5033893;28;20017;-45
2022/03/26 04:14:00;;;;;;;45.33;17.25;;;;;;;;;;5033949;28;20017;-45
2022/03/26 04:16:25;;;;;;;51.20;18.48;;;;;;;;;;5033499;28;20060;-45
2022/03/26 04:18:50;;;;;;;46.85;18.23;;;;;;;;;;5033896;28;20028;-44
2022/03/26 04:21:16;;;;;;;43.80;16.30;;;;;;;;;;5033839;28;20029;-44
2022/03/26 04:23:41;;;;;;;37.65;15.60;;;;;;;;;;5033704;28;20021;-45
2022/03/26 04:26:07;;;;;;;38.47;16.42;;;;;;;;;;5032781;28;20032;-46
2022/03/26 04:28:33;;;;;;;35.22;13.48;;;;;;;;;;5033376;28;20017;-43
2022/03/26 04:30:59;;;;;;;30.35;14.05;;;;;;;;;;5033500;28;20033;-47
2022/03/26 04:33:24;;;;;;;36.03;13.75;;;;;;;;;;5033371;28;20040;-44
2022/03/26 04:35:49;;;;;;;35.65;14.35;;;;;;;;;;5033490;28;20041;-48
2022/03/26 04:38:15;;;;;;;36.03;13.68;;;;;;;;;;5033458;28;20108;-45
2022/03/26 04:40:40;;;;;;;27.38;12.18;;;;;;;;;;5033238;28;20461;-45
2022/03/26 04:43:06;;;;;;;30.80;13.50;;;;;;;;;;5033351;28;20025;-44
2022/03/26 04:45:32;;;;;;;31.80;14.88;;;;;;;;;;5033474;28;20024;-43
2022/03/26 04:47:58;;;;;;;35.75;13.93;;;;;;;;;;5032962;28;20032;-44
2022/03/26 04:50:23;;;;;;;34.72;15.75;;;;;;;;;;5033291;28;20109;-42
2022/03/26 04:52:49;;;;;;;34.25;15.25;;;;;;;;;;5033243;28;20092;-44
2022/03/26 04:55:14;;;;;;;38.83;15.00;;;;;;;;;;5033042;28;20076;-42
2022/03/26 04:57:41;;;;;;;33.13;14.95;;;;;;;;;;5031839;28;20104;-46
2022/03/26 05:00:08;;;;;;;36.97;16.17;;;;;;;;;;5033056;28;20522;-44
2022/03/26 05:02:34;;;;;;;31.45;14.15;;;;;;;;;;5033384;28;20096;-44
2022/03/26 05:04:59;;;;;;;29.15;14.27;;;;;;;;;;5032893;28;20392;-44
2022/03/26 05:10:08;;;;;;;33.92;14.50;;;;;;;;;;5032978;28;20071;-42
2022/03/26 05:12:34;;;;;;;40.13;15.10;;;;;;;;;;5032901;28;20049;-44
2022/03/26 05:14:59;;;;;;;35.85;15.50;;;;;;;;;;5032569;28;20033;-45
2022/03/26 05:17:24;;;;;;;39.17;16.40;;;;;;;;;;5032749;28;20021;-44
2022/03/26 05:19:50;;;;;;;38.33;16.23;;;;;;;;;;5032931;28;20470;-45
2022/03/26 05:22:15;;;;;;;38.00;16.08;;;;;;;;;;5033094;28;20052;-44
2022/03/26 05:24:40;;;;;;;39.83;15.57;;;;;;;;;;5032843;28;20049;-42
2022/03/26 05:27:06;;;;;;;33.45;15.32;;;;;;;;;;5032786;28;20013;-42
2022/03/26 05:29:32;;;;;;;30.58;15.07;;;;;;;;;;5031190;28;20017;-43
2022/03/26 05:31:59;;;;;;;35.47;15.85;;;;;;;;;;5031341;28;20041;-42
2022/03/26 05:34:24;;;;;;;39.47;13.88;;;;;;;;;;5032831;28;20100;-42
2022/03/26 05:36:50;;;;;;;31.77;13.77;;;;;;;;;;5031582;28;20121;-42
2022/03/26 05:39:15;;;;;;;36.15;13.40;;;;;;;;;;5036630;28;20026;-42
2022/03/26 05:41:42;;;;;;;34.85;14.13;;;;;;;;;;5036640;28;20026;-43
2022/03/26 05:44:08;;;;;;;29.42;12.82;;;;;;;;;;5036584;28;20075;-43
2022/03/26 05:46:33;;;;;;;27.27;13.18;;;;;;;;;;5036455;28;20018;-45
2022/03/26 05:48:59;;;;;;;34.22;12.40;;;;;;;;;;5037034;28;20445;-43
2022/03/26 05:51:24;;;;;;;24.27;12.38;;;;;;;;;;5036596;28;20382;-45
2022/03/26 05:53:50;;;;;;;34.05;13.23;;;;;;;;;;5036603;28;20029;-44
2022/03/26 05:56:16;;;;;;;31.92;14.30;;;;;;;;;;5034981;28;20029;-43
2022/03/26 05:58:41;;;;;;;28.50;13.02;;;;;;;;;;5036305;28;20380;-43
2022/03/26 06:01:07;;;;;;;27.27;11.65;;;;;;;;;;5036473;28;20456;-44
2022/03/26 06:03:32;;;;;;;28.42;12.40;;;;;;;;;;5035150;28;20021;-43
2022/03/26 06:05:58;;;;;;;22.38;11.55;;;;;;;;;;5036293;28;20046;-43
2022/03/26 06:08:24;;;;;;;27.08;11.48;;;;;;;;;;5036180;28;20026;-42
2022/03/26 06:10:49;;;;;;;25.77;12.45;;;;;;;;;;5036382;28;20375;-44
2022/03/26 06:13:14;;;;;;;30.77;13.13;;;;;;;;;;5036109;28;20022;-43
2022/03/26 06:15:41;;;;;;;28.13;13.27;;;;;;;;;;5034588;28;20124;-42
2022/03/26 06:18:06;;;;;;;25.05;13.02;;;;;;;;;;5036154;28;20044;-44
2022/03/26 06:20:31;;;;;;;29.40;12.60;;;;;;;;;;5036016;28;20452;-48
2022/03/26 06:22:57;;;;;;;29.20;13.43;;;;;;;;;;5035766;28;20025;-46
2022/03/26 06:25:22;;;;;;;25.38;12.40;;;;;;;;;;5036056;28;20048;-45
2022/03/26 06:27:48;;;;;;;32.30;12.57;;;;;;;;;;5035895;28;20053;-46
2022/03/26 06:30:14;;;;;;;26.42;12.35;;;;;;;;;;5035737;28;20025;-42
2022/03/26 06:32:40;;;;;;;24.40;12.23;;;;;;;;;;5035791;28;20466;-42
2022/03/26 06:35:05;;;;;;;22.55;10.13;;;;;;;;;;5035534;28;20037;-43
2022/03/26 06:37:31;;;;;;;24.73;11.38;;;;;;;;;;5029950;28;20018;-45
2022/03/26 06:39:56;;;;;;;17.80;10.50;;;;;;;;;;5034293;28;20109;-43
2022/03/26 06:42:22;;;;;;;25.70;10.40;;;;;;;;;;5035528;28;20025;-44
2022/03/26 06:44:47;;;;;;;20.50;11.20;;;;;;;;;;5035191;28;20025;-44
2022/03/26 06:47:12;;;;;;;31.23;12.15;;;;;;;;;;5035463;28;20027;-45
2022/03/26 06:49:38;;;;;;;31.58;12.00;;;;;;;;;;5034487;28;20030;-44
2022/03/26 06:52:04;;;;;;;29.13;10.77;;;;;;;;;;5035520;28;20022;-47
2022/03/26 06:54:29;;;;;;;22.55;10.70;;;;;;;;;;5035404;28;20053;-46
2022/03/26 06:56:55;;;;;;;29.30;11.38;;;;;;;;;;5023369;28;20055;-40
2022/03/26 06:59:21;;;;;;;23.17;7.68;;;;;;;;;;5018194;28;20022;-42
2022/03/26 07:01:46;;;;;;;16.77;9.32;;;;;;;;;;5017868;28;20033;-40
2022/03/26 07:04:12;;;;;;;20.77;9.85;;;;;;;;;;5020185;28;20053;-41
2022/03/26 07:06:37;;;;;;;30.27;11.50;;;;;;;;;;5019017;28;20022;-40
2022/03/26 07:09:03;;;;;;;24.92;10.85;;;;;;;;;;5023007;28;20045;-40
2022/03/26 07:11:28;;;;;;;28.48;10.75;;;;;;;;;;5030342;28;20099;-40
2022/03/26 07:13:54;;;;;;;20.38;10.57;;;;;;;;;;5020550;28;20022;-41
2022/03/26 07:16:19;;;;;;;16.08;9.30;;;;;;;;;;5020303;28;20454;-40
2022/03/26 07:18:44;;;;;;;18.90;9.38;;;;;;;;;;5026117;28;20059;-39
2022/03/26 07:21:10;;;;;;;19.52;8.68;;;;;;;;;;5032829;28;20034;-39
2022/03/26 07:23:35;;;;;;;23.15;7.70;;;;;;;;;;5016159;28;20029;-40
2022/03/26 07:26:01;;;;;;;19.20;7.25;;;;;;;;;;5022959;28;20017;-39
2022/03/26 07:28:26;;;;;;;25.35;13.30;;;;;;;;;;5029702;28;20029;-39
2022/03/26 07:30:52;;;;;;;21.88;7.80;;;;;;;;;;5018386;28;20453;-39
2022/03/26 07:33:17;;;;;;;15.70;7.22;;;;;;;;;;5016308;28;20026;-38
2022/03/26 07:35:43;;;;;;;19.35;6.97;;;;;;;;;;5019636;28;20520;-38
2022/03/26 07:38:08;;;;;;;20.75;7.30;;;;;;;;;;5022636;28;20418;-39
2022/03/26 07:40:34;;;;;;;16.92;7.38;;;;;;;;;;5014248;28;20091;-39
2022/03/26 07:42:59;;;;;;;16.65;7.15;;;;;;;;;;5015388;28;20053;-38
2022/03/26 07:45:25;;;;;;;21.60;8.60;;;;;;;;;;5016473;28;20049;-39
2022/03/26 07:47:50;;;;;;;17.10;7.25;;;;;;;;;;5024662;28;20029;-39
2022/03/26 07:50:16;;;;;;;19.00;6.75;;;;;;;;;;5025369;28;20037;-41
2022/03/26 07:52:42;;;;;;;17.40;7.10;;;;;;;;;;5022053;28;20072;-39
2022/03/26 07:55:08;;;;;;;13.18;7.63;;;;;;;;;;5022828;28;20033;-39
2022/03/26 07:57:33;;;;;;;17.40;8.02;;;;;;;;;;5019729;28;20022;-42
2022/03/26 07:59:58;;;;;;;14.55;7.32;;;;;;;;;;5017027;28;20025;-39
2022/03/26 08:02:24;;;;;;;20.40;7.78;;;;;;;;;;5014466;28;20018;-39
2022/03/26 08:04:50;;;;;;;14.90;7.85;;;;;;;;;;5015799;28;20416;-38
2022/03/26 08:07:15;;;;;;;17.58;7.55;;;;;;;;;;5031000;28;20041;-39
2022/03/26 08:09:40;;;;;;;15.48;7.90;;;;;;;;;;5020895;28;20065;-39
2022/03/26 08:12:07;;;;;;;12.13;7.60;;;;;;;;;;5026879;28;20018;-39
2022/03/26 08:14:34;;;;;;;18.55;8.35;;;;;;;;;;5019329;28;20033;-39
2022/03/26 08:17:00;;;;;;;26.20;8.40;;;;;;;;;;5014942;28;20052;-39
2022/03/26 08:19:25;;;;;;;12.98;7.65;;;;;;;;;;5017461;28;20034;-39
2022/03/26 08:21:51;;;;;;;12.10;8.10;;;;;;;;;;5020829;28;20103;-39
2022/03/26 08:24:16;;;;;;;143.55;16.58;;;;;;;;;;5026969;28;20041;-39
2022/03/26 08:26:42;;;;;;;14.52;7.75;;;;;;;;;;5022362;28;20052;-40
2022/03/26 08:29:07;;;;;;;16.60;7.80;;;;;;;;;;5027841;28;20431;-42
2022/03/26 08:31:33;;;;;;;14.25;7.35;;;;;;;;;;5019578;28;20028;-40
2022/03/26 08:33:59;;;;;;;19.98;8.77;;;;;;;;;;5027068;28;20416;-40
2022/03/26 08:36:25;;;;;;;16.58;7.65;;;;;;;;;;5020628;28;20034;-42
2022/03/26 08:38:51;;;;;;;16.38;8.10;;;;;;;;;;5028532;28;20475;-41
2022/03/26 08:41:17;;;;;;;17.30;7.93;;;;;;;;;;5030889;28;20021;-42
2022/03/26 08:43:43;;;;;;;12.73;7.25;;;;;;;;;;5024194;28;20022;-43
2022/03/26 08:46:08;;;;;;;16.38;8.38;;;;;;;;;;5028793;28;20389;-44
2022/03/26 08:48:34;;;;;;;325.15;221.25;;;;;;;;;;5018463;28;20358;-42
2022/03/26 08:51:00;;;;;;;414.45;251.23;;;;;;;;;;5020726;28;20018;-43
2022/03/26 08:54:08;;;;;;;16.70;8.63;;;;;;;;;;5060632;28;20379;-39
2022/03/26 08:56:34;;;;;;;21.27;8.82;;;;;;;;;;5053984;28;20029;-41
2022/03/26 08:58:59;;;;;;;18.88;8.48;;;;;;;;;;5045852;28;20461;-38
2022/03/26 09:01:25;;;;;;;70.05;10.55;;;;;;;;;;5045778;28;20024;-39
2022/03/26 09:03:50;;;;;;;19.70;8.68;;;;;;;;;;5045439;28;20456;-38
2022/03/26 09:06:16;;;;;;;434.10;38.58;;;;;;;;;;5046863;28;20030;-38
2022/03/26 09:08:41;;;;;;;17.08;8.73;;;;;;;;;;5046902;28;20025;-38
2022/03/26 09:11:06;;;;;;;20.40;8.77;;;;;;;;;;5046210;28;20067;-37
2022/03/26 09:13:32;;;;;;;20.73;8.65;;;;;;;;;;5046659;28;20037;-38
2022/03/26 09:15:58;;;;;;;16.65;8.93;;;;;;;;;;5045829;28;20049;-39
2022/03/26 09:18:25;;;;;;;23.17;8.98;;;;;;;;;;5047828;28;20025;-39
2022/03/26 09:20:50;;;;;;;17.02;8.57;;;;;;;;;;5046779;28;20018;-40
2022/03/26 09:23:16;;;;;;;20.08;8.20;;;;;;;;;;5044340;28;20629;-45
2022/03/26 09:25:44;;;;;;;16.45;7.63;;;;;;;;;;5044865;28;20148;-43
2022/03/26 09:28:10;;;;;;;17.40;8.70;;;;;;;;;;5047919;28;20109;-44
2022/03/26 09:30:36;;;;;;;15.32;8.27;;;;;;;;;;5044984;28;20358;-45
2022/03/26 09:33:01;;;;;;;15.55;8.93;;;;;;;;;;5043844;28;20044;-42
2022/03/26 09:35:27;;;;;;;13.18;7.78;;;;;;;;;;5046818;28;20021;-43
2022/03/26 09:37:52;;;;;;;12.73;8.45;;;;;;;;;;5046706;28;20025;-43
2022/03/26 09:40:19;;;;;;;16.35;8.88;;;;;;;;;;5043332;28;20101;-42
2022/03/26 09:42:45;;;;;;;14.50;8.80;;;;;;;;;;5046723;28;20052;-39
2022/03/26 09:45:10;;;;;;;23.45;9.85;;;;;;;;;;5043612;28;20057;-39
2022/03/26 09:47:36;;;;;;;18.88;9.23;;;;;;;;;;5046306;28;20017;-39
2022/03/26 09:50:02;;;;;;;21.40;9.38;;;;;;;;;;5046352;28;20068;-39
2022/03/26 09:52:27;;;;;;;20.15;10.00;;;;;;;;;;5046147;28;20143;-40
2022/03/26 09:54:55;;;;;;;18.33;9.98;;;;;;;;;;5044718;28;20101;-38
2022/03/26 09:57:21;;;;;;;18.98;8.82;;;;;;;;;;5045744;28;20025;-38
2022/03/26 09:59:46;;;;;;;14.90;8.57;;;;;;;;;;5046052;28;20025;-39
2022/03/26 10:02:11;;;;;;;19.23;9.48;;;;;;;;;;5041979;28;20033;-39
2022/03/26 10:04:38;;;;;;;20.48;9.38;;;;;;;;;;5037448;28;20075;-39
2022/03/26 10:07:06;;;;;;;15.52;8.27;;;;;;;;;;5032256;28;20022;-39
2022/03/26 10:09:36;;;;;;;14.82;7.95;;;;;;;;;;5032512;28;20029;-38
2022/03/26 10:12:02;;;;;;;13.80;8.52;;;;;;;;;;5030556;28;20044;-39
2022/03/26 10:14:45;;;;;;;16.98;8.70;;;;;;;;;;5034862;28;20104;-40
2022/03/26 10:17:16;;;;;;;23.95;9.32;;;;;;;;;;5031371;28;20087;-40
2022/03/26 10:20:07;;;;;;;15.63;8.23;;;;;;;;;;5032276;28;20117;-40
2022/03/26 10:22:37;;;;;;;19.63;9.13;;;;;;;;;;5030551;28;22188;-41
2022/03/26 10:25:04;;;;;;;21.90;9.40;;;;;;;;;;5021570;28;20029;-39
2022/03/26 10:27:40;;;;;;;63.30;11.13;;;;;;;;;;5031811;28;20025;-40
2022/03/26 10:30:06;;;;;;;19.80;9.05;;;;;;;;;;5032989;28;20087;-40
2022/03/26 10:32:39;;;;;;;16.88;8.80;;;;;;;;;;5029339;28;20037;-40
2022/03/26 10:35:12;;;;;;;14.93;10.18;;;;;;;;;;5030381;28;20028;-41
2022/03/26 10:37:58;;;;;;;30.55;9.23;;;;;;;;;;5027331;28;20075;-41
2022/03/26 10:40:25;;;;;;;18.90;9.48;;;;;;;;;;5031746;28;20473;-39
2022/03/26 10:43:02;;;;;;;20.83;10.35;;;;;;;;;;5030563;28;20068;-40
2022/03/26 10:45:28;;;;;;;17.60;10.50;;;;;;;;;;5026733;28;20528;-40
2022/03/26 10:47:55;;;;;;;23.73;10.18;;;;;;;;;;5031892;28;20059;-41
2022/03/26 10:50:20;;;;;;;18.48;9.48;;;;;;;;;;5030541;28;20412;-42
2022/03/26 10:52:46;;;;;;;25.60;11.32;;;;;;;;;;5032549;28;20053;-43
2022/03/26 10:55:13;;;;;;;30.33;11.27;;;;;;;;;;5030479;28;20025;-45
2022/03/26 10:57:38;;;;;;;22.83;10.73;;;;;;;;;;5033692;28;20031;-43
2022/03/26 11:00:04;;;;;;;23.30;11.43;;;;;;;;;;5034810;28;20022;-45
2022/03/26 11:02:29;;;;;;;19.08;10.40;;;;;;;;;;5034022;28;20120;-45
2022/03/26 11:04:54;;;;;;;18.60;11.45;;;;;;;;;;5034243;28;20025;-44
2022/03/26 11:07:20;;;;;;;16.65;11.80;;;;;;;;;;5032480;28;20021;-44
2022/03/26 11:09:46;;;;;;;22.80;12.95;;;;;;;;;;5031277;28;20026;-46
2022/03/26 11:12:11;;;;;;;24.60;11.48;;;;;;;;;;5031695;28;20543;-44
2022/03/26 11:14:42;;;;;;;19.13;11.05;;;;;;;;;;5031066;28;20018;-45
2022/03/26 11:17:25;;;;;;;25.15;10.38;;;;;;;;;;5030856;28;20104;-44
2022/03/26 11:19:57;;;;;;;17.45;9.50;;;;;;;;;;5032383;28;20029;-42
2022/03/26 11:22:41;;;;;;;24.45;11.40;;;;;;;;;;5031391;28;20067;-45
2022/03/26 11:25:10;;;;;;;17.98;9.18;;;;;;;;;;5033721;28;20105;-43
2022/03/26 11:27:35;;;;;;;;;;;;;;;;;;5034419;28;20027;-43
2022/03/26 11:30:24;;;;;;;22.98;8.25;;;;;;;;;;5033951;28;19988;-45
2022/03/26 11:32:52;;;;;;;28.60;9.57;;;;;;;;;;5033790;28;20029;-44
2022/03/26 11:35:18;;;;;;;19.73;8.30;;;;;;;;;;5033934;28;20105;-44
2022/03/26 11:38:04;;;;;;;21.02;7.82;;;;;;;;;;5033319;28;20247;-44
2022/03/26 11:40:44;;;;;;;16.05;7.18;;;;;;;;;;5033684;28;20076;-45
2022/03/26 11:43:15;;;;;;;17.45;7.78;;;;;;;;;;5033647;28;20423;-43
2022/03/26 11:51:23;;;;;;;24.67;10.15;;;;;;;;;;5033183;28;20396;-45
2022/03/26 11:53:49;;;;;;;16.15;8.88;;;;;;;;;;5033211;28;20053;-43
2022/03/26 11:56:24;;;;;;;21.70;9.20;;;;;;;;;;5033265;28;20021;-47
2022/03/26 11:59:02;;;;;;;17.70;8.10;;;;;;;;;;5033623;28;20025;-44
2022/03/26 12:01:34;;;;;;;35.67;8.68;;;;;;;;;;5033428;28;20129;-45
2022/03/26 12:04:07;;;;;;;22.58;8.45;;;;;;;;;;5033197;28;20028;-43
2022/03/26 12:06:40;;;;;;;13.05;7.72;;;;;;;;;;5033239;28;20032;-43
2022/03/26 12:09:05;;;;;;;12.43;7.53;;;;;;;;;;5033182;28;20014;-44
2022/03/26 12:11:34;;;;;;;11.45;6.75;;;;;;;;;;5033495;28;20032;-45
2022/03/26 12:14:03;;;;;;;16.58;7.63;;;;;;;;;;5032718;28;20045;-43
2022/03/26 12:16:47;;;;;;;16.52;7.10;;;;;;;;;;5033181;28;20025;-44
2022/03/26 12:19:32;;;;;;;14.63;6.72;;;;;;;;;;5033148;28;20022;-44
2022/03/26 12:21:57;;;;;;;16.80;6.38;;;;;;;;;;5032849;28;20029;-44
2022/03/26 12:24:28;;;;;;;15.00;6.18;;;;;;;;;;5032729;28;20021;-44
2022/03/26 12:26:54;;;;;;;10.48;5.07;;;;;;;;;;5029733;28;20021;-44
2022/03/26 12:29:19;;;;;;;18.98;6.00;;;;;;;;;;5032705;28;20425;-44
2022/03/26 12:31:49;;;;;;;13.35;5.97;;;;;;;;;;5032913;28;20469;-45
2022/03/26 12:34:14;;;;;;;10.50;5.70;;;;;;;;;;5032764;28;20389;-44
2022/03/26 12:36:40;;;;;;;18.75;5.13;;;;;;;;;;5033038;28;20017;-46
2022/03/26 12:39:05;;;;;;;9.82;5.32;;;;;;;;;;5033048;28;20053;-47
2022/03/26 12:41:30;;;;;;;10.88;4.60;;;;;;;;;;5033086;28;20025;-44
2022/03/26 12:43:57;;;;;;;10.10;5.45;;;;;;;;;;5032894;28;20029;-43
2022/03/26 12:46:29;;;;;;;11.02;5.15;;;;;;;;;;5032800;28;20044;-48
2022/03/26 12:48:55;;;;;;;11.32;4.45;;;;;;;;;;5032688;28;20021;-45
2022/03/26 12:51:22;;;;;;;15.20;5.18;;;;;;;;;;5031588;28;20405;-45
2022/03/26 12:53:48;;;;;;;10.52;5.07;;;;;;;;;;5032643;28;20151;-44
2022/03/26 12:56:14;;;;;;;8.98;4.90;;;;;;;;;;5032860;28;20087;-44
2022/03/26 12:58:57;;;;;;;12.10;5.70;;;;;;;;;;5032686;28;20033;-48
2022/03/26 13:01:23;;;;;;;10.10;5.10;;;;;;;;;;5032611;28;20484;-45
2022/03/26 13:03:50;;;;;;;9.82;4.70;;;;;;;;;;5032740;28;20072;-44
2022/03/26 13:06:16;;;;;;;18.75;5.68;;;;;;;;;;5032792;28;20136;-44
2022/03/26 13:08:51;;;;;;;8.93;5.28;;;;;;;;;;5032609;28;20078;-43
2022/03/26 13:11:17;;;;;;;14.90;5.35;;;;;;;;;;5032667;28;20104;-46
2022/03/26 13:13:43;;;;;;;10.27;5.18;;;;;;;;;;5032509;28;20040;-44
2022/03/26 13:16:13;;;;;;;9.95;5.43;;;;;;;;;;5032733;28;20025;-44
2022/03/26 13:18:45;;;;;;;13.48;5.18;;;;;;;;;;5032708;28;20022;-44
2022/03/26 13:21:12;;;;;;;16.95;6.03;;;;;;;;;;5032534;28;20021;-43
2022/03/26 13:23:38;;;;;;;9.98;5.43;;;;;;;;;;5032642;28;20026;-44
2022/03/26 13:26:04;;;;;;;15.35;5.75;;;;;;;;;;5032549;28;20487;-44
2022/03/26 13:28:34;;;;;;;11.63;6.05;;;;;;;;;;5032034;28;20022;-45
2022/03/26 13:30:59;;;;;;;13.65;5.93;;;;;;;;;;5032522;28;20029;-45
2022/03/26 13:33:28;;;;;;;20.05;6.75;;;;;;;;;;5031305;28;20076;-43
2022/03/26 13:35:55;;;;;;;12.30;6.18;;;;;;;;;;5032466;28;20025;-45
2022/03/26 13:38:27;;;;;;;14.73;7.40;;;;;;;;;;5031160;28;20401;-44
2022/03/26 13:40:53;;;;;;;19.55;7.43;;;;;;;;;;5035694;28;20088;-46
2022/03/26 13:43:19;;;;;;;11.98;7.40;;;;;;;;;;5036108;28;20469;-44
2022/03/26 13:45:44;;;;;;;19.45;7.40;;;;;;;;;;5036159;28;20026;-45
2022/03/26 13:48:10;;;;;;;15.32;7.13;;;;;;;;;;5036086;28;20013;-45
2022/03/26 13:50:36;;;;;;;11.70;6.72;;;;;;;;;;5036034;28;20504;-44
2022/03/26 13:53:02;;;;;;;15.65;6.45;;;;;;;;;;5035669;28;20053;-44
2022/03/26 13:55:35;;;;;;;15.45;6.55;;;;;;;;;;5035792;28;20097;-45
2022/03/26 13:58:07;;;;;;;18.00;7.03;;;;;;;;;;5035747;28;20491;-45
2022/03/26 14:00:33;;;;;;;18.23;6.78;;;;;;;;;;5035922;28;20071;-44
2022/03/26 14:03:02;;;;;;;16.05;7.43;;;;;;;;;;5035737;28;20026;-44
2022/03/26 14:05:31;;;;;;;16.30;7.45;;;;;;;;;;5035798;28;20052;-44
2022/03/26 14:08:07;;;;;;;18.20;7.18;;;;;;;;;;5035499;28;20029;-46
2022/03/26 14:10:37;;;;;;;13.50;7.10;;;;;;;;;;5035698;28;20029;-45
2022/03/26 14:13:03;;;;;;;15.43;6.50;;;;;;;;;;5035666;28;20045;-44
2022/03/26 14:15:29;;;;;;;13.30;6.78;;;;;;;;;;5035555;28;20040;-44
2022/03/26 14:17:55;;;;;;;15.13;6.75;;;;;;;;;;5035420;28;20021;-44
2022/03/26 14:20:20;;;;;;;15.60;7.47;;;;;;;;;;5035440;28;20102;-45
2022/03/26 14:22:47;;;;;;;19.08;7.22;;;;;;;;;;5033881;28;20018;-46
2022/03/26 14:25:13;;;;;;;16.75;6.25;;;;;;;;;;5035477;28;20028;-48
2022/03/26 14:27:39;;;;;;;16.15;6.15;;;;;;;;;;5035420;28;20108;-47
2022/03/26 14:30:04;;;;;;;13.07;6.82;;;;;;;;;;5035247;28;20021;-45